Time;durP1;ratioP1;P1;durP2;ratioP2;P2;SDS_P1;SDS_P2;PMS_P1;PMS_P2;Temp;Humidity;BMP_temperature;BMP_pressure;BME280_temperature;BME280_humidity;BME280_pressure;Samples;Min_cycle;Max_cycle;Signal;HPM_P1;HPM_P2
2023/01/28 00:00:44;;;;;;;14.25;13.02;;;2.30;99.90;;;;;;5115074;27;20047;-77
2023/01/28 00:03:10;;;;;;;13.48;12.38;;;2.30;99.90;;;;;;5134496;27;20099;-77
2023/01/28 00:05:38;;;;;;;14.70;13.40;;;2.20;99.90;;;;;;5116833;27;20396;-77
2023/01/28 00:08:04;;;;;;;14.85;13.60;;;2.30;99.90;;;;;;5119316;27;20042;-77
2023/01/28 00:10:30;;;;;;;14.23;13.13;;;2.20;99.90;;;;;;5118002;27;20043;-77
2023/01/28 00:12:56;;;;;;;13.35;12.25;;;2.20;99.90;;;;;;5106766;27;20051;-77
2023/01/28 00:15:24;;;;;;;15.93;14.63;;;2.20;99.90;;;;;;5118839;27;20042;-77
2023/01/28 00:17:50;;;;;;;15.50;14.10;;;2.20;99.90;;;;;;5117555;27;20043;-77
2023/01/28 00:20:16;;;;;;;15.00;13.80;;;2.10;99.90;;;;;;5116373;27;20046;-77
2023/01/28 00:22:47;;;;;;;16.73;15.33;;;2.20;99.90;;;;;;5102506;27;20041;-78
2023/01/28 00:25:13;;;;;;;17.47;16.07;;;2.20;99.90;;;;;;5128076;27;20047;-77
2023/01/28 00:27:38;;;;;;;17.45;16.05;;;2.20;99.90;;;;;;5128782;27;20043;-77
2023/01/28 00:30:08;;;;;;;17.47;16.07;;;2.20;99.90;;;;;;5129746;27;20049;-77
2023/01/28 00:32:34;;;;;;;21.23;19.33;;;2.20;99.90;;;;;;5134913;27;20038;-76
2023/01/28 00:35:00;;;;;;;23.87;21.53;;;2.20;99.90;;;;;;5117220;27;20082;-77
2023/01/28 00:37:25;;;;;;;22.03;20.03;;;2.30;99.90;;;;;;5109768;27;20077;-77
2023/01/28 00:39:51;;;;;;;18.43;16.80;;;2.20;99.90;;;;;;5112919;27;20066;-77
2023/01/28 00:42:17;;;;;;;18.20;16.70;;;2.20;99.90;;;;;;5109821;27;20405;-77
2023/01/28 00:44:43;;;;;;;17.98;16.50;;;2.20;99.90;;;;;;5129861;27;20045;-76
2023/01/28 00:47:10;;;;;;;18.30;16.80;;;2.30;99.90;;;;;;5110344;27;20043;-77
2023/01/28 00:49:35;;;;;;;18.83;17.30;;;2.20;99.90;;;;;;5108070;27;20039;-77
2023/01/28 00:52:01;;;;;;;18.50;16.95;;;2.20;99.90;;;;;;5133612;27;20135;-78
2023/01/28 00:54:27;;;;;;;18.30;16.80;;;2.20;99.90;;;;;;5111008;27;20040;-77
2023/01/28 00:56:53;;;;;;;17.77;16.37;;;2.20;99.90;;;;;;5113412;27;20153;-77
2023/01/28 00:59:19;;;;;;;18.30;16.90;;;2.20;99.90;;;;;;5100302;27;20042;-77
2023/01/28 01:01:44;;;;;;;17.67;16.27;;;2.10;99.90;;;;;;5113192;27;20031;-78
2023/01/28 01:04:10;;;;;;;17.80;16.40;;;2.10;99.90;;;;;;5125279;27;20467;-78
2023/01/28 01:06:39;;;;;;;17.63;16.23;;;2.10;99.90;;;;;;5110809;27;20054;-78
2023/01/28 01:09:10;;;;;;;17.20;15.87;;;2.20;99.90;;;;;;5128473;27;20043;-78
2023/01/28 01:11:36;;;;;;;17.20;15.80;;;2.20;99.90;;;;;;5124797;27;20066;-78
2023/01/28 01:14:04;;;;;;;17.03;15.63;;;2.10;99.90;;;;;;5126856;27;20051;-77
2023/01/28 01:16:35;;;;;;;17.30;15.90;;;2.10;99.90;;;;;;5113634;27;20055;-78
2023/01/28 01:19:00;;;;;;;17.52;16.10;;;2.00;99.90;;;;;;5131374;27;20741;-77
2023/01/28 01:21:30;;;;;;;17.07;15.60;;;2.00;99.90;;;;;;5111566;27;20076;-78
2023/01/28 01:23:56;;;;;;;16.87;15.47;;;2.00;99.90;;;;;;5113954;27;20113;-77
2023/01/28 01:26:22;;;;;;;17.60;16.10;;;2.00;99.90;;;;;;5114841;27;20086;-77
2023/01/28 01:28:50;;;;;;;16.87;15.27;;;2.00;99.90;;;;;;5111083;27;20955;-78
2023/01/28 01:31:18;;;;;;;15.80;14.53;;;2.00;99.90;;;;;;5127060;27;20058;-77
2023/01/28 01:33:46;;;;;;;16.73;15.40;;;2.00;99.90;;;;;;5126188;27;20083;-78
2023/01/28 01:36:14;;;;;;;15.37;14.17;;;2.00;99.90;;;;;;5107965;27;20493;-78
2023/01/28 01:38:41;;;;;;;15.68;14.48;;;1.90;99.90;;;;;;5110295;27;20043;-78
2023/01/28 01:41:08;;;;;;;14.90;13.73;;;2.00;99.90;;;;;;5127647;27;20462;-78
2023/01/28 01:43:49;;;;;;;16.50;15.20;;;2.00;99.90;;;;;;5113296;27;20081;-77
2023/01/28 01:46:31;;;;;;;15.37;14.20;;;1.90;99.90;;;;;;5128988;27;20450;-77
2023/01/28 01:49:21;;;;;;;15.30;14.10;;;1.90;99.90;;;;;;5149655;27;20133;-78
2023/01/28 01:51:51;;;;;;;15.90;14.67;;;2.00;99.90;;;;;;5149139;27;20528;-77
2023/01/28 01:54:20;;;;;;;15.43;14.23;;;1.90;99.90;;;;;;5129817;27;20129;-78
2023/01/28 01:56:48;;;;;;;15.53;14.27;;;2.00;99.90;;;;;;5109924;27;20103;-78
2023/01/28 01:59:20;;;;;;;14.03;13.03;;;1.90;99.90;;;;;;5111401;27;20049;-78
2023/01/28 02:01:47;;;;;;;13.80;12.77;;;2.00;99.90;;;;;;5109000;27;20042;-77
2023/01/28 02:04:24;;;;;;;14.00;12.93;;;1.90;99.90;;;;;;5111436;27;20085;-77
2023/01/28 02:06:51;;;;;;;15.07;13.97;;;1.90;99.90;;;;;;5113488;27;20045;-78
2023/01/28 02:09:37;;;;;;;14.87;13.57;;;1.90;99.90;;;;;;5110511;27;20477;-78
2023/01/28 02:12:19;;;;;;;14.73;13.52;;;1.90;99.90;;;;;;5129007;27;20035;-78
2023/01/28 02:14:57;;;;;;;15.50;14.30;;;1.90;99.90;;;;;;5127361;27;20118;-77
2023/01/28 02:17:24;;;;;;;14.97;13.77;;;1.90;99.90;;;;;;5110348;27;20035;-78
2023/01/28 02:19:59;;;;;;;15.90;14.70;;;1.90;99.90;;;;;;5128259;27;20038;-78
2023/01/28 02:22:43;;;;;;;15.27;13.88;;;1.90;99.90;;;;;;5109142;27;20039;-77
2023/01/28 02:25:12;;;;;;;16.03;14.70;;;1.90;99.90;;;;;;5107174;27;20055;-77
2023/01/28 02:28:15;;;;;;;16.00;14.80;;;1.90;99.90;;;;;;5126041;27;20046;-77
2023/01/28 02:30:50;;;;;;;14.53;13.43;;;1.90;99.90;;;;;;5122896;27;20062;-77
2023/01/28 02:33:26;;;;;;;14.57;13.40;;;1.90;99.90;;;;;;5111242;27;20119;-78
2023/01/28 02:35:53;;;;;;;14.23;13.13;;;1.90;99.90;;;;;;5117049;27;20514;-77
2023/01/28 02:38:31;;;;;;;15.17;13.87;;;1.90;99.90;;;;;;5100108;27;20529;-78
2023/01/28 02:41:07;;;;;;;14.97;13.77;;;2.10;99.90;;;;;;5127097;27;20058;-78
2023/01/28 02:43:42;;;;;;;14.77;13.50;;;2.00;99.90;;;;;;5126499;27;20110;-78
2023/01/28 02:49:20;;;;;;;15.07;13.60;;;1.90;99.90;;;;;;5125648;27;20054;-77
2023/01/28 02:51:58;;;;;;;14.47;13.23;;;2.00;99.90;;;;;;5112613;27;20031;-78
2023/01/28 02:54:45;;;;;;;14.03;12.83;;;2.00;99.90;;;;;;5130531;27;20853;-77
2023/01/28 02:57:57;;;;;;;26.00;23.33;;;1.90;99.90;;;;;;5119422;27;20099;-77
2023/01/28 03:00:33;;;;;;;15.80;14.40;;;1.90;99.90;;;;;;5112206;27;20153;-77
2023/01/28 03:03:27;;;;;;;20.07;17.90;;;1.90;99.90;;;;;;5137513;27;20086;-77
2023/01/28 03:06:05;;;;;;;14.20;12.80;;;1.90;99.90;;;;;;5137514;27;20046;-76
2023/01/28 03:39:13;;;;;;;13.27;12.10;;;2.00;99.90;;;;;;5118099;27;20059;-72
2023/01/28 03:41:40;;;;;;;14.10;12.90;;;2.00;99.90;;;;;;5109158;27;20046;-72
2023/01/28 03:46:49;;;;;;;13.23;11.80;;;2.00;99.90;;;;;;5133397;27;20054;-72
2023/01/28 03:49:16;;;;;;;13.20;12.00;;;2.00;99.90;;;;;;5096787;27;20051;-71
2023/01/28 03:51:43;;;;;;;12.83;11.73;;;2.00;99.90;;;;;;5129678;27;20050;-71
2023/01/28 03:54:09;;;;;;;15.80;11.90;;;2.00;99.90;;;;;;5112745;27;20050;-71
2023/01/28 03:56:36;;;;;;;13.67;12.43;;;2.00;99.90;;;;;;5134122;27;20047;-71
2023/01/28 03:59:08;;;;;;;13.23;12.13;;;2.10;99.90;;;;;;5130377;27;20126;-71
2023/01/28 04:01:37;;;;;;;13.57;12.37;;;2.00;99.90;;;;;;5098283;27;20050;-71
2023/01/28 04:04:03;;;;;;;13.33;12.23;;;2.00;99.90;;;;;;5136348;27;20130;-76
2023/01/28 04:06:28;;;;;;;14.17;12.97;;;2.00;99.90;;;;;;5134338;27;20090;-77
2023/01/28 04:08:58;;;;;;;13.00;11.93;;;2.00;99.90;;;;;;5112666;27;20058;-77
2023/01/28 04:11:25;;;;;;;13.87;12.67;;;2.00;99.90;;;;;;5124677;27;20470;-77
2023/01/28 04:13:51;;;;;;;12.20;11.10;;;2.00;99.90;;;;;;5137188;27;20031;-71
2023/01/28 04:16:17;;;;;;;10.83;9.93;;;2.10;99.90;;;;;;5128613;27;20103;-72
2023/01/28 04:18:44;;;;;;;11.87;10.87;;;2.00;99.90;;;;;;5137418;27;20129;-72
2023/01/28 04:21:10;;;;;;;14.10;12.90;;;2.00;99.90;;;;;;5138142;27;20043;-72
2023/01/28 04:23:36;;;;;;;14.47;13.23;;;2.10;99.90;;;;;;5139940;27;20050;-71
2023/01/28 04:26:03;;;;;;;14.33;13.13;;;2.00;99.90;;;;;;5130562;27;20043;-72
2023/01/28 04:28:28;;;;;;;15.50;13.60;;;2.00;99.90;;;;;;5112448;27;20057;-72
2023/01/28 04:30:54;;;;;;;14.43;13.13;;;2.00;99.90;;;;;;5137354;27;20126;-71
2023/01/28 04:33:21;;;;;;;14.50;13.20;;;2.00;99.90;;;;;;5105519;27;20656;-72
2023/01/28 04:35:47;;;;;;;14.40;13.20;;;2.10;99.90;;;;;;5132033;27;20057;-76
2023/01/28 04:38:13;;;;;;;15.37;14.07;;;2.10;99.90;;;;;;5138429;27;20050;-77
2023/01/28 04:40:39;;;;;;;15.20;13.90;;;2.00;99.90;;;;;;5126409;27;20522;-77
2023/01/28 04:43:05;;;;;;;15.73;14.40;;;2.00;99.90;;;;;;5109832;27;20438;-77
2023/01/28 04:45:30;;;;;;;15.17;13.77;;;2.00;99.90;;;;;;5118932;27;20079;-77
2023/01/28 04:47:57;;;;;;;15.93;14.50;;;2.00;99.90;;;;;;5087402;27;20078;-77
2023/01/28 04:50:22;;;;;;;14.50;13.10;;;2.00;99.90;;;;;;5116192;27;20043;-77
2023/01/28 04:52:48;;;;;;;14.27;12.97;;;2.00;99.90;;;;;;5099126;27;20038;-77
2023/01/28 04:55:14;;;;;;;14.73;13.43;;;2.00;99.90;;;;;;5137190;27;20547;-77
2023/01/28 04:57:40;;;;;;;14.55;13.15;;;1.90;99.90;;;;;;5126857;27;20057;-77
2023/01/28 05:00:06;;;;;;;15.53;14.13;;;1.90;99.90;;;;;;5112431;27;20054;-77
2023/01/28 05:02:32;;;;;;;15.20;13.90;;;1.90;99.90;;;;;;5130252;27;20093;-77
2023/01/28 05:05:00;;;;;;;15.70;14.30;;;1.90;99.90;;;;;;5106501;27;20474;-77
2023/01/28 05:07:26;;;;;;;16.25;14.80;;;1.90;99.90;;;;;;5144706;27;20549;-77
2023/01/28 05:09:51;;;;;;;15.27;13.85;;;1.90;99.90;;;;;;5110229;27;20039;-77
2023/01/28 05:12:19;;;;;;;14.88;13.68;;;1.80;99.90;;;;;;5111145;27;20413;-77
2023/01/28 05:14:45;;;;;;;15.70;14.40;;;1.80;99.90;;;;;;5122402;27;20043;-77
2023/01/28 05:17:11;;;;;;;14.33;13.03;;;1.80;99.90;;;;;;5119168;27;20050;-77
2023/01/28 05:19:36;;;;;;;14.57;13.27;;;1.90;99.90;;;;;;5126622;27;20046;-71
2023/01/28 05:22:05;;;;;;;15.00;13.63;;;1.90;99.90;;;;;;5135104;27;20075;-72
2023/01/28 05:24:31;;;;;;;16.47;14.97;;;1.90;99.90;;;;;;5113209;27;20404;-72
2023/01/28 05:26:57;;;;;;;16.70;15.23;;;1.80;99.90;;;;;;5117265;27;20047;-72
2023/01/28 05:29:22;;;;;;;17.10;15.60;;;1.90;99.90;;;;;;5108387;27;20050;-72
2023/01/28 05:31:48;;;;;;;17.73;16.13;;;1.90;99.90;;;;;;5113974;27;20154;-71
2023/01/28 05:34:14;;;;;;;17.47;15.97;;;1.90;99.90;;;;;;5144778;27;20043;-72
2023/01/28 05:36:40;;;;;;;16.47;15.03;;;1.80;99.90;;;;;;5131592;27;20129;-71
2023/01/28 05:39:06;;;;;;;15.17;13.87;;;1.90;99.90;;;;;;5125965;27;20055;-72
2023/01/28 05:41:32;;;;;;;15.00;13.70;;;1.90;99.90;;;;;;5133560;27;20039;-71
2023/01/28 05:43:58;;;;;;;15.20;13.83;;;1.90;99.90;;;;;;5124755;27;20091;-71
2023/01/28 05:46:24;;;;;;;15.97;14.57;;;1.90;99.90;;;;;;5131744;27;20046;-71
2023/01/28 05:48:50;;;;;;;16.33;14.87;;;1.80;99.90;;;;;;5102837;27;20196;-71
2023/01/28 05:51:16;;;;;;;15.95;14.45;;;1.90;99.90;;;;;;5109165;27;20056;-71
2023/01/28 05:53:42;;;;;;;15.60;14.20;;;1.90;99.90;;;;;;5106776;27;20058;-72
2023/01/28 05:56:08;;;;;;;17.83;16.33;;;1.90;99.90;;;;;;5133413;27;20409;-71
2023/01/28 05:58:33;;;;;;;16.70;15.30;;;1.90;99.90;;;;;;5106403;27;20054;-71
2023/01/28 06:00:59;;;;;;;16.40;15.00;;;1.90;99.90;;;;;;5127140;27;20050;-71
2023/01/28 06:03:25;;;;;;;16.73;15.33;;;1.90;99.90;;;;;;5127838;27;20167;-71
2023/01/28 06:05:51;;;;;;;19.13;17.43;;;1.90;99.90;;;;;;5115774;27;20037;-71
2023/01/28 06:08:17;;;;;;;17.17;15.67;;;1.80;99.90;;;;;;5125921;27;20069;-71
2023/01/28 06:10:46;;;;;;;19.53;17.63;;;1.90;99.90;;;;;;5129928;27;20120;-71
2023/01/28 06:13:11;;;;;;;18.93;17.33;;;1.80;99.90;;;;;;5130982;27;20158;-71
2023/01/28 06:15:37;;;;;;;20.97;19.17;;;1.80;99.90;;;;;;5139950;27;20129;-75
2023/01/28 06:18:03;;;;;;;20.67;18.80;;;1.80;99.90;;;;;;5134643;27;20177;-76
2023/01/28 06:20:29;;;;;;;21.00;19.20;;;1.80;99.90;;;;;;5109129;27;20730;-76
2023/01/28 06:22:55;;;;;;;23.23;21.23;;;1.90;99.90;;;;;;5106694;28;20504;-76
2023/01/28 06:25:20;;;;;;;21.87;19.97;;;1.80;99.90;;;;;;5128035;27;20066;-76
2023/01/28 06:27:46;;;;;;;22.20;20.23;;;1.80;99.90;;;;;;5114952;27;20091;-77
2023/01/28 06:30:12;;;;;;;20.77;18.97;;;1.80;99.90;;;;;;5116326;27;20641;-77
2023/01/28 06:32:38;;;;;;;21.07;19.17;;;1.80;99.90;;;;;;5116964;27;20036;-77
2023/01/28 06:35:07;;;;;;;21.70;19.83;;;1.80;99.90;;;;;;5116222;28;20111;-76
2023/01/28 06:37:34;;;;;;;21.43;19.63;;;1.80;99.90;;;;;;5122007;27;20219;-76
2023/01/28 06:40:00;;;;;;;20.87;19.03;;;1.80;99.90;;;;;;5143127;27;20050;-76
2023/01/28 06:42:28;;;;;;;20.13;18.43;;;1.80;99.90;;;;;;5110258;27;20039;-76
2023/01/28 06:44:54;;;;;;;20.37;18.67;;;1.90;99.90;;;;;;5133648;27;20046;-76
2023/01/28 06:47:20;;;;;;;21.07;19.10;;;1.90;99.90;;;;;;5122447;28;20489;-76
2023/01/28 06:49:46;;;;;;;21.07;19.13;;;1.80;99.90;;;;;;5091165;28;20482;-76
2023/01/28 06:52:11;;;;;;;22.13;20.23;;;1.80;99.90;;;;;;5113299;28;20545;-76
2023/01/28 06:54:37;;;;;;;20.63;18.83;;;1.80;99.90;;;;;;5107258;28;20047;-77
2023/01/28 06:57:03;;;;;;;20.73;18.93;;;1.80;99.90;;;;;;5120780;27;20062;-76
2023/01/28 06:59:29;;;;;;;20.83;18.90;;;1.80;99.90;;;;;;5113360;27;20142;-79
2023/01/28 07:01:55;;;;;;;22.03;20.13;;;1.80;99.90;;;;;;5134588;27;20046;-78
2023/01/28 07:04:20;;;;;;;20.27;18.50;;;1.70;99.90;;;;;;5104094;27;20507;-78
2023/01/28 07:06:46;;;;;;;21.73;19.83;;;1.70;99.90;;;;;;5117640;27;20501;-78
2023/01/28 07:09:12;;;;;;;22.07;20.17;;;1.70;99.90;;;;;;5103139;27;20489;-78
2023/01/28 07:11:37;;;;;;;22.57;20.57;;;1.80;99.90;;;;;;5133796;27;20042;-77
2023/01/28 07:14:03;;;;;;;22.67;20.67;;;1.70;99.90;;;;;;5118841;27;20039;-77
2023/01/28 07:16:30;;;;;;;20.97;19.17;;;1.70;99.90;;;;;;5121982;27;20062;-76
2023/01/28 07:18:56;;;;;;;21.30;19.43;;;1.70;99.90;;;;;;5117216;27;20047;-77
2023/01/28 07:21:21;;;;;;;20.00;18.27;;;1.70;99.90;;;;;;5120400;27;20455;-76
2023/01/28 07:23:47;;;;;;;20.40;18.53;;;1.70;99.90;;;;;;5116028;27;20039;-77
2023/01/28 07:26:14;;;;;;;20.83;18.80;;;1.80;99.90;;;;;;5102332;27;20095;-77
2023/01/28 07:28:40;;;;;;;21.10;19.13;;;1.70;99.90;;;;;;5114236;27;20043;-77
2023/01/28 07:31:06;;;;;;;21.77;19.70;;;1.70;99.90;;;;;;5124196;27;20520;-76
2023/01/28 07:33:31;;;;;;;20.50;18.67;;;1.70;99.90;;;;;;5092898;27;20043;-76
2023/01/28 07:35:57;;;;;;;20.27;18.33;;;1.70;99.90;;;;;;5142667;27;20500;-76
2023/01/28 07:38:23;;;;;;;20.93;19.07;;;1.70;99.90;;;;;;5125638;27;20100;-76
2023/01/28 07:40:49;;;;;;;20.67;18.83;;;1.70;99.90;;;;;;5122970;27;20037;-77
2023/01/28 07:43:15;;;;;;;20.37;18.57;;;1.90;99.90;;;;;;5143477;27;20046;-77
2023/01/28 07:45:41;;;;;;;21.63;19.63;;;1.70;99.90;;;;;;5116690;27;20119;-76
2023/01/28 07:48:08;;;;;;;19.87;18.17;;;1.70;99.90;;;;;;5136880;27;20099;-76
2023/01/28 07:50:36;;;;;;;21.03;19.13;;;1.80;99.90;;;;;;5140258;27;20099;-76
2023/01/28 07:53:06;;;;;;;20.60;18.70;;;1.70;99.90;;;;;;5129408;27;20046;-76
2023/01/28 07:55:34;;;;;;;22.10;20.10;;;1.50;99.90;;;;;;5117172;27;20575;-76
2023/01/28 07:58:01;;;;;;;20.47;18.57;;;1.60;99.90;;;;;;5134066;27;20043;-77
2023/01/28 08:00:29;;;;;;;20.13;18.33;;;1.60;99.90;;;;;;5108998;27;20071;-71
2023/01/28 08:02:56;;;;;;;19.57;17.87;;;1.60;99.90;;;;;;5136357;27;20059;-71
2023/01/28 08:05:23;;;;;;;20.83;18.93;;;1.50;99.90;;;;;;5115905;27;20095;-71
2023/01/28 08:07:49;;;;;;;22.10;20.00;;;1.50;99.90;;;;;;5117632;27;20081;-71
2023/01/28 08:10:16;;;;;;;21.33;19.40;;;1.50;99.90;;;;;;5129647;27;20493;-71
2023/01/28 08:12:57;;;;;;;22.53;20.43;;;1.40;99.90;;;;;;5143766;27;20062;-71
2023/01/28 08:15:24;;;;;;;22.27;20.27;;;1.40;99.90;;;;;;5114482;27;20031;-71
2023/01/28 08:17:52;;;;;;;22.17;20.07;;;1.40;99.90;;;;;;5138987;27;20043;-71
2023/01/28 08:20:18;;;;;;;22.83;20.73;;;1.40;99.90;;;;;;5140192;27;20083;-71
2023/01/28 08:22:44;;;;;;;22.40;20.37;;;1.40;99.90;;;;;;5126608;27;20081;-71
2023/01/28 08:25:10;;;;;;;22.33;20.23;;;1.40;99.90;;;;;;5130833;27;20039;-71
2023/01/28 08:27:35;;;;;;;23.67;21.37;;;1.40;99.90;;;;;;5111856;27;20043;-71
2023/01/28 08:30:02;;;;;;;23.30;21.13;;;1.40;99.90;;;;;;5130383;27;20130;-71
2023/01/28 08:32:29;;;;;;;21.37;19.37;;;1.40;99.90;;;;;;5094178;27;20041;-72
2023/01/28 08:34:55;;;;;;;22.30;20.30;;;1.40;99.90;;;;;;5129129;27;20054;-72
2023/01/28 08:37:21;;;;;;;22.63;20.53;;;1.30;99.90;;;;;;5112568;27;20042;-71
2023/01/28 08:39:46;;;;;;;22.27;20.17;;;1.40;99.90;;;;;;5117186;27;20035;-73
2023/01/28 08:42:12;;;;;;;22.40;20.30;;;1.40;99.90;;;;;;5129730;27;20049;-77
2023/01/28 08:44:38;;;;;;;23.60;21.40;;;1.40;99.90;;;;;;5116395;27;20082;-76
2023/01/28 08:47:04;;;;;;;19.43;17.47;;;1.40;99.90;;;;;;5115429;27;20039;-76
2023/01/28 08:49:30;;;;;;;19.93;17.73;;;1.40;99.90;;;;;;5115870;27;20047;-76
2023/01/28 08:51:57;;;;;;;18.20;16.53;;;1.50;99.90;;;;;;5115767;27;20045;-76
2023/01/28 08:54:22;;;;;;;19.03;17.30;;;1.50;99.90;;;;;;5117245;27;20519;-75
2023/01/28 08:56:48;;;;;;;18.83;17.07;;;1.50;99.90;;;;;;5126084;27;20043;-72
2023/01/28 08:59:14;;;;;;;18.90;17.00;;;1.50;99.90;;;;;;5109556;27;20041;-72
2023/01/28 09:01:40;;;;;;;18.07;16.47;;;1.50;99.90;;;;;;5111496;27;20118;-72
2023/01/28 09:04:06;;;;;;;18.67;16.87;;;1.60;99.90;;;;;;5108956;27;20150;-72
2023/01/28 09:06:32;;;;;;;18.03;16.43;;;1.60;99.90;;;;;;5123855;27;20104;-72
2023/01/28 09:08:58;;;;;;;16.80;15.27;;;1.70;99.90;;;;;;5112410;27;20031;-72
2023/01/28 09:11:25;;;;;;;16.40;14.80;;;1.70;99.90;;;;;;5094968;27;20538;-76
2023/01/28 09:13:51;;;;;;;15.33;13.93;;;1.80;99.90;;;;;;5109793;27;20043;-76
2023/01/28 09:16:16;;;;;;;15.57;14.17;;;1.80;99.90;;;;;;5110643;27;20046;-77
2023/01/28 09:18:42;;;;;;;15.20;13.90;;;2.00;99.90;;;;;;5110369;27;20104;-76
2023/01/28 09:21:08;;;;;;;15.70;14.30;;;2.10;99.90;;;;;;5127070;27;20038;-76
2023/01/28 09:23:37;;;;;;;15.03;13.70;;;2.10;99.90;;;;;;5118315;27;20099;-76
2023/01/28 09:26:05;;;;;;;15.50;14.17;;;2.10;99.90;;;;;;5103826;27;20341;-76
2023/01/28 09:28:31;;;;;;;13.70;12.37;;;2.20;99.90;;;;;;5138222;27;20396;-77
2023/01/28 09:31:05;;;;;;;13.93;12.63;;;2.20;99.90;;;;;;5109449;27;20047;-76
2023/01/28 09:33:31;;;;;;;13.50;12.37;;;2.30;99.90;;;;;;5129111;27;20477;-77
2023/01/28 09:36:02;;;;;;;14.30;13.00;;;2.30;99.90;;;;;;5120236;27;20070;-76
2023/01/28 09:38:31;;;;;;;13.20;12.07;;;2.30;99.90;;;;;;5113022;27;20042;-77
2023/01/28 09:40:59;;;;;;;13.33;12.13;;;2.30;99.90;;;;;;5106752;27;20121;-77
2023/01/28 09:43:59;;;;;;;14.77;13.37;;;2.30;99.90;;;;;;5124427;27;20524;-77
2023/01/28 09:46:31;;;;;;;14.07;12.88;;;2.30;99.90;;;;;;5132822;27;20495;-76
2023/01/28 09:49:00;;;;;;;12.87;11.67;;;2.30;99.90;;;;;;5141959;27;20161;-77
2023/01/28 09:51:29;;;;;;;13.25;12.02;;;2.30;99.90;;;;;;5126131;27;20058;-76
2023/01/28 09:53:59;;;;;;;13.65;12.35;;;2.30;99.90;;;;;;5134472;27;20118;-76
2023/01/28 09:56:29;;;;;;;13.00;11.90;;;2.40;99.90;;;;;;5139640;27;21004;-75
2023/01/28 09:59:00;;;;;;;13.32;12.02;;;2.40;99.90;;;;;;5134844;27;20046;-76
2023/01/28 10:01:41;;;;;;;14.15;12.88;;;2.50;99.90;;;;;;5124114;27;20042;-77
2023/01/28 10:04:52;;;;;;;11.30;10.18;;;2.50;99.90;;;;;;5118427;27;20404;-76
2023/01/28 10:07:41;;;;;;;12.20;11.10;;;2.60;99.90;;;;;;5073657;27;20046;-76
2023/01/28 10:10:25;;;;;;;12.75;11.55;;;2.60;99.90;;;;;;5119413;27;20064;-76
2023/01/28 10:13:04;;;;;;;11.13;10.13;;;2.70;99.90;;;;;;5114547;27;20035;-77
2023/01/28 10:16:01;;;;;;;12.98;11.77;;;2.80;99.90;;;;;;5130701;27;20497;-74
2023/01/28 10:18:35;;;;;;;13.23;12.00;;;2.90;99.90;;;;;;5122304;27;20561;-75
2023/01/28 10:21:44;;;;;;;12.73;11.63;;;2.90;99.90;;;;;;5127608;27;20163;-76
2023/01/28 10:24:17;;;;;;;12.43;11.30;;;3.00;99.90;;;;;;5100214;27;20411;-77
2023/01/28 10:26:44;;;;;;;13.02;11.43;;;3.10;99.90;;;;;;5133946;27;20053;-76
2023/01/28 10:29:20;;;;;;;11.60;10.50;;;3.10;99.90;;;;;;5118777;27;20035;-76
2023/01/28 10:32:03;;;;;;;11.82;10.82;;;3.10;99.90;;;;;;5138895;27;20619;-77
2023/01/28 10:34:29;;;;;;;11.95;10.85;;;3.20;99.90;;;;;;5134366;27;20050;-76
2023/01/28 10:36:56;;;;;;;11.88;10.88;;;3.20;99.90;;;;;;5117751;27;20054;-76
2023/01/28 10:39:24;;;;;;;12.60;11.27;;;3.20;99.90;;;;;;5117847;28;20462;-77
2023/01/28 10:41:50;;;;;;;13.60;12.35;;;3.30;99.90;;;;;;5134467;27;20047;-77
2023/01/28 10:44:26;;;;;;;15.35;14.05;;;3.30;99.90;;;;;;5112896;27;20039;-76
2023/01/28 10:46:54;;;;;;;14.10;12.90;;;3.30;99.90;;;;;;5117053;27;20070;-77
2023/01/28 10:49:26;;;;;;;13.63;12.32;;;3.30;99.90;;;;;;5118820;27;20073;-77
2023/01/28 10:51:52;;;;;;;14.02;12.82;;;3.40;99.90;;;;;;5111770;27;20129;-77
2023/01/28 10:54:26;;;;;;;22.65;20.65;;;3.40;99.90;;;;;;5122519;27;20118;-76
2023/01/28 10:56:56;;;;;;;16.45;15.00;;;3.40;99.90;;;;;;5127880;27;20043;-77
2023/01/28 10:59:25;;;;;;;16.63;15.20;;;3.40;99.90;;;;;;5124341;27;20039;-76
2023/01/28 11:01:53;;;;;;;13.90;12.60;;;3.40;99.90;;;;;;5136535;27;20038;-75
2023/01/28 11:04:29;;;;;;;13.57;12.38;;;3.40;99.90;;;;;;5132612;27;20047;-75
2023/01/28 11:07:18;;;;;;;12.95;11.65;;;3.40;99.90;;;;;;5116772;27;20501;-76
2023/01/28 11:09:47;;;;;;;12.88;11.68;;;3.50;99.90;;;;;;5142556;27;20047;-76
2023/01/28 11:12:19;;;;;;;12.50;11.30;;;3.50;99.90;;;;;;5135329;27;20130;-75
2023/01/28 11:14:54;;;;;;;12.43;11.23;;;3.50;99.90;;;;;;5120216;27;20034;-75
2023/01/28 11:17:23;;;;;;;12.55;11.35;;;3.60;99.90;;;;;;5102758;27;20142;-75
2023/01/28 11:19:52;;;;;;;15.18;13.68;;;3.60;99.90;;;;;;5140696;27;20072;-77
2023/01/28 11:22:35;;;;;;;14.05;12.75;;;3.60;99.90;;;;;;5119342;27;20038;-76
2023/01/28 11:25:13;;;;;;;14.05;12.75;;;3.70;99.90;;;;;;5136677;27;20054;-76
2023/01/28 11:27:39;;;;;;;13.82;12.52;;;3.80;99.90;;;;;;5119015;27;20126;-76
2023/01/28 11:30:06;;;;;;;13.20;11.90;;;3.80;99.90;;;;;;5120184;27;20130;-75
2023/01/28 11:32:32;;;;;;;13.48;12.30;;;3.80;99.90;;;;;;5137575;27;20398;-76
2023/01/28 11:35:01;;;;;;;13.13;11.90;;;3.90;99.90;;;;;;5106700;27;20520;-76
2023/01/28 11:37:28;;;;;;;13.15;11.95;;;4.10;99.90;;;;;;5117840;27;20039;-75
2023/01/28 11:40:15;;;;;;;13.32;12.02;;;4.10;99.90;;;;;;5129660;27;20379;-76
2023/01/28 11:42:41;;;;;;;13.43;12.10;;;4.20;99.90;;;;;;5131005;27;20384;-75
2023/01/28 11:45:31;;;;;;;12.38;11.18;;;4.20;99.90;;;;;;5112091;27;20051;-75
2023/01/28 11:48:13;;;;;;;14.87;13.47;;;4.30;99.90;;;;;;5130018;27;20051;-75
2023/01/28 11:50:49;;;;;;;14.02;12.63;;;4.30;99.90;;;;;;5104079;27;20529;-75
2023/01/28 11:53:31;;;;;;;14.52;12.93;;;4.40;99.90;;;;;;5126669;27;20326;-75
2023/01/28 11:56:19;;;;;;;13.48;12.18;;;4.40;99.90;;;;;;5131826;27;20090;-75
2023/01/28 11:59:16;;;;;;;13.27;11.98;;;4.50;99.90;;;;;;5133489;27;20039;-75
2023/01/28 12:01:57;;;;;;;15.20;13.25;;;4.60;99.90;;;;;;5130623;27;20050;-76
2023/01/28 12:05:03;;;;;;;14.05;12.63;;;4.60;99.90;;;;;;5137631;27;20050;-75
2023/01/28 12:08:16;;;;;;;14.73;12.90;;;4.70;99.90;;;;;;5130593;27;20051;-77
2023/01/28 12:11:19;;;;;;;15.20;13.52;;;4.80;99.90;;;;;;5126287;27;20062;-75
2023/01/28 12:14:19;;;;;;;13.20;11.85;;;4.90;99.90;;;;;;5116735;27;20039;-75
2023/01/28 12:17:01;;;;;;;12.85;11.55;;;5.00;99.90;;;;;;5115480;27;20045;-75
2023/01/28 12:19:44;;;;;;;14.15;12.75;;;5.00;99.90;;;;;;5134301;27;20051;-75
2023/01/28 12:22:22;;;;;;;15.27;13.80;;;5.10;99.90;;;;;;5138265;27;20049;-76
2023/01/28 12:24:57;;;;;;;14.00;12.60;;;5.20;99.90;;;;;;5138214;27;20884;-75
2023/01/28 12:28:13;;;;;;;14.23;12.82;;;5.20;99.90;;;;;;5132076;27;20518;-75
2023/01/28 12:30:57;;;;;;;14.52;13.00;;;5.20;99.90;;;;;;5083611;27;20047;-75
2023/01/28 12:33:56;;;;;;;15.90;14.30;;;5.10;99.90;;;;;;5133986;27;20380;-75
2023/01/28 12:36:30;;;;;;;15.60;13.85;;;5.10;99.90;;;;;;5117413;27;20047;-75
2023/01/28 12:39:08;;;;;;;17.75;15.60;;;5.00;99.90;;;;;;5126906;27;20057;-76
2023/01/28 12:41:45;;;;;;;19.63;15.93;;;5.00;99.90;;;;;;5128040;27;20047;-76
2023/01/28 12:44:24;;;;;;;19.13;16.05;;;5.00;99.90;;;;;;5131886;27;20047;-76
2023/01/28 12:46:54;;;;;;;18.00;15.93;;;4.90;99.90;;;;;;5117272;27;20043;-75
2023/01/28 12:49:29;;;;;;;18.75;16.75;;;4.80;99.90;;;;;;5124330;27;20501;-75
2023/01/28 12:52:11;;;;;;;19.30;15.93;;;4.80;99.90;;;;;;5124762;27;20050;-75
2023/01/28 12:54:56;;;;;;;17.88;13.75;;;4.70;99.90;;;;;;5133841;27;20050;-76
2023/01/28 12:57:30;;;;;;;14.48;12.75;;;4.80;99.90;;;;;;5115268;27;20081;-75
2023/01/28 13:00:23;;;;;;;18.33;15.27;;;4.80;99.90;;;;;;5128910;27;20047;-75
2023/01/28 13:03:14;;;;;;;15.95;13.40;;;4.90;99.90;;;;;;5117046;27;20509;-75
2023/01/28 13:06:05;;;;;;;17.20;14.02;;;5.00;99.90;;;;;;5120420;27;20051;-75
2023/01/28 13:08:31;;;;;;;21.95;17.52;;;5.10;99.90;;;;;;5128032;27;20043;-75
2023/01/28 13:10:59;;;;;;;19.27;16.77;;;5.20;99.90;;;;;;5124235;27;20047;-75
2023/01/28 13:13:32;;;;;;;20.45;16.80;;;5.20;99.90;;;;;;5120174;27;20043;-74
2023/01/28 13:15:59;;;;;;;18.45;16.48;;;5.20;99.90;;;;;;5115279;27;20576;-75
2023/01/28 13:18:45;;;;;;;18.10;15.27;;;5.20;99.90;;;;;;5105023;27;20146;-75
2023/01/28 13:21:14;;;;;;;16.73;14.88;;;5.30;99.90;;;;;;5141985;27;20505;-76
2023/01/28 13:23:40;;;;;;;18.38;15.60;;;5.20;99.90;;;;;;5126849;27;20087;-76
2023/01/28 13:26:44;;;;;;;16.98;15.20;;;5.10;99.90;;;;;;5136851;27;20047;-76
2023/01/28 13:29:25;;;;;;;17.63;14.27;;;5.10;99.90;;;;;;5120253;27;20130;-76
2023/01/28 13:31:57;;;;;;;16.17;14.48;;;5.10;99.90;;;;;;5112310;27;20111;-76